createdAt,value
2019-05-01T00:00:59.957Z,0.28
2019-05-01T00:03:46.183Z,0.40
2019-05-01T00:06:16.237Z,0.50
2019-05-01T00:08:44.716Z,0.40
2019-05-01T00:11:13.185Z,0.85
2019-05-01T00:13:41.665Z,0.68
2019-05-01T00:16:10.138Z,0.47
2019-05-01T00:18:38.626Z,0.40
2019-05-01T00:21:07.096Z,0.42
2019-05-01T00:23:34.488Z,0.30
2019-05-01T00:26:02.964Z,0.40
2019-05-01T00:28:31.436Z,0.40
2019-05-01T00:30:59.927Z,0.50
2019-05-01T00:33:28.398Z,0.70
2019-05-01T00:35:56.879Z,0.30
2019-05-01T00:38:25.355Z,0.50
2019-05-01T00:40:53.840Z,0.60
2019-05-01T00:43:22.315Z,0.20
2019-05-01T00:45:50.792Z,0.40
2019-05-01T00:48:19.263Z,0.50
2019-05-01T00:50:47.737Z,0.40
2019-05-01T00:53:16.210Z,0.50
2019-05-01T00:55:46.241Z,0.50
2019-05-01T00:58:28.356Z,0.60
2019-05-01T01:01:07.462Z,2.40
2019-05-01T01:03:35.939Z,0.57
2019-05-01T01:06:04.912Z,1.22
2019-05-01T01:08:33.396Z,0.90
2019-05-01T01:11:01.870Z,0.90
2019-05-01T01:13:30.341Z,1.12
2019-05-01T01:15:58.805Z,0.70
2019-05-01T01:18:27.287Z,0.30
2019-05-01T01:20:55.761Z,0.40
2019-05-01T01:23:24.238Z,0.60
2019-05-01T01:25:52.713Z,0.30
2019-05-01T01:28:21.193Z,0.40
2019-05-01T01:30:56.048Z,0.60
2019-05-01T01:33:19.872Z,0.50
2019-05-01T01:35:48.339Z,0.95
2019-05-01T01:38:16.804Z,0.78
2019-05-01T01:40:45.274Z,0.60
2019-05-01T01:43:31.494Z,0.30
2019-05-01T01:46:01.539Z,0.40
2019-05-01T01:48:30.011Z,0.20
2019-05-01T01:50:58.486Z,0.40
2019-05-01T01:53:26.961Z,0.37
2019-05-01T01:55:55.448Z,0.30
2019-05-01T01:58:23.921Z,0.50
2019-05-01T02:01:09.298Z,0.35
2019-05-01T02:03:31.663Z,0.40
2019-05-01T02:06:00.149Z,0.60
2019-05-01T02:08:28.620Z,0.35
2019-05-01T02:10:57.104Z,0.50
2019-05-01T02:13:25.587Z,0.62
2019-05-01T02:15:54.073Z,0.50
2019-05-01T02:18:22.565Z,0.60
2019-05-01T02:20:51.091Z,0.55
2019-05-01T02:23:19.573Z,0.80
2019-05-01T02:25:48.045Z,0.70
2019-05-01T02:28:34.344Z,0.60
2019-05-01T02:31:28.112Z,0.60
2019-05-01T02:33:49.693Z,0.70
2019-05-01T02:36:18.163Z,0.80
2019-05-01T02:38:46.632Z,0.85
2019-05-01T02:41:15.109Z,0.70
2019-05-01T02:43:44.484Z,0.80
2019-05-01T02:46:12.950Z,0.70
2019-05-01T02:48:43.093Z,0.80
2019-05-01T02:51:11.563Z,0.68
2019-05-01T02:53:41.244Z,1.57
2019-05-01T02:56:23.450Z,3.30
2019-05-01T02:58:51.940Z,2.15
2019-05-01T03:01:20.406Z,2.85
2019-05-01T03:03:48.878Z,3.00
2019-05-01T03:06:17.392Z,1.70
2019-05-01T03:08:45.831Z,0.90
2019-05-01T03:11:14.299Z,0.88
2019-05-01T03:13:42.785Z,0.68
2019-05-01T03:16:11.257Z,1.62
2019-05-01T03:18:50.543Z,0.98
2019-05-01T03:21:20.585Z,0.88
2019-05-01T03:23:50.633Z,0.90
2019-05-01T03:26:19.309Z,0.90
2019-05-01T03:28:47.791Z,1.07
2019-05-01T03:31:16.259Z,2.08
2019-05-01T03:33:44.790Z,2.00
2019-05-01T03:36:13.387Z,2.55
2019-05-01T03:38:41.858Z,1.32
2019-05-01T03:41:10.334Z,2.15
2019-05-01T03:43:39.006Z,1.00
2019-05-01T03:46:07.480Z,1.05
2019-05-01T03:48:35.954Z,1.00
2019-05-01T03:51:04.438Z,1.60
2019-05-01T03:53:32.906Z,1.80
2019-05-01T03:56:01.390Z,1.92
2019-05-01T03:58:30.267Z,1.10
2019-05-01T04:01:16.753Z,0.95
2019-05-01T04:03:46.791Z,1.25
2019-05-01T04:06:15.270Z,1.10
2019-05-01T04:08:43.749Z,1.20
2019-05-01T04:11:12.223Z,1.02
2019-05-01T04:13:40.801Z,1.00
2019-05-01T04:16:09.491Z,1.00
2019-05-01T04:18:37.968Z,1.30
2019-05-01T04:21:07.953Z,1.35
2019-05-01T04:23:36.925Z,1.70
2019-05-01T04:26:06.009Z,1.30
2019-05-01T04:28:53.860Z,1.27
2019-05-01T04:31:38.991Z,1.22
2019-05-01T04:34:09.026Z,2.17
2019-05-01T04:36:39.177Z,0.90
2019-05-01T04:39:08.139Z,1.07
2019-05-01T04:41:36.715Z,1.10
2019-05-01T04:44:05.181Z,1.42
2019-05-01T04:46:33.781Z,1.20
2019-05-01T04:49:02.249Z,1.30
2019-05-01T04:51:31.432Z,1.20
2019-05-01T04:53:59.895Z,1.20
2019-05-01T04:56:28.367Z,1.30
2019-05-01T04:58:56.852Z,1.40
2019-05-01T05:01:25.925Z,1.22
2019-05-01T05:03:54.599Z,1.02
2019-05-01T05:06:23.074Z,0.95
2019-05-01T05:08:51.550Z,1.40
2019-05-01T05:11:24.606Z,1.15
2019-05-01T05:14:12.853Z,0.95
2019-05-01T05:16:54.963Z,1.37
2019-05-01T05:19:23.444Z,1.35
2019-05-01T05:21:51.920Z,1.30
2019-05-01T05:24:20.444Z,1.30
2019-05-01T05:26:48.921Z,1.30
2019-05-01T05:29:17.613Z,0.93
2019-05-01T05:31:46.085Z,1.07
2019-05-01T05:34:14.860Z,1.10
2019-05-01T05:36:43.350Z,0.90
2019-05-01T05:39:13.382Z,1.17
2019-05-01T05:41:41.868Z,1.32
2019-05-01T05:44:10.346Z,1.82
2019-05-01T05:46:38.838Z,1.00
2019-05-01T05:49:07.315Z,1.10
2019-05-01T05:51:44.334Z,0.80
2019-05-01T05:54:33.213Z,1.00
2019-05-01T05:57:09.210Z,1.05
2019-05-01T05:59:48.558Z,1.15
2019-05-01T06:02:19.759Z,2.85
2019-05-01T06:04:49.799Z,1.30
2019-05-01T06:07:38.255Z,0.70
2019-05-01T06:10:23.167Z,1.10
2019-05-01T06:13:07.313Z,0.90
2019-05-01T06:15:49.019Z,0.90
2019-05-01T06:18:27.376Z,1.05
2019-05-01T06:21:02.263Z,1.02
2019-05-01T06:23:47.508Z,1.20
2019-05-01T06:26:37.534Z,1.40
2019-05-01T06:29:03.066Z,1.10
2019-05-01T06:31:31.948Z,1.30
2019-05-01T06:34:00.659Z,2.00
2019-05-01T06:36:29.130Z,1.87
2019-05-01T06:38:57.611Z,1.90
2019-05-01T06:41:28.626Z,1.57
2019-05-01T06:44:02.232Z,1.40
2019-05-01T06:46:35.387Z,1.40
2019-05-01T06:49:06.874Z,1.70
2019-05-01T06:51:36.196Z,1.00
2019-05-01T06:54:06.055Z,1.10
2019-05-01T06:56:34.935Z,0.75
2019-05-01T06:59:04.409Z,1.52
2019-05-01T07:01:33.095Z,1.60
2019-05-01T07:04:03.926Z,1.00
2019-05-01T07:06:32.954Z,1.00
2019-05-01T07:09:01.512Z,1.02
2019-05-01T07:11:30.025Z,0.98
2019-05-01T07:13:58.485Z,1.80
2019-05-01T07:16:26.965Z,1.07
2019-05-01T07:18:58.402Z,2.00
2019-05-01T07:21:30.465Z,1.75
2019-05-01T07:23:57.425Z,1.90
2019-05-01T07:26:25.913Z,1.10
2019-05-01T07:29:09.824Z,1.37
2019-05-01T07:31:38.286Z,1.40
2019-05-01T07:34:16.239Z,1.17
2019-05-01T07:36:36.963Z,0.80
2019-05-01T07:39:09.932Z,0.72
2019-05-01T07:41:37.666Z,1.15
2019-05-01T07:44:11.932Z,1.30
2019-05-01T07:46:48.945Z,1.32
2019-05-01T07:49:17.616Z,0.93
2019-05-01T07:51:52.468Z,0.95
2019-05-01T07:54:20.940Z,0.85
2019-05-01T07:56:49.419Z,1.00
2019-05-01T07:59:17.894Z,1.45
2019-05-01T08:01:49.812Z,0.80
2019-05-01T08:04:22.577Z,1.12
2019-05-01T08:06:52.109Z,0.70
2019-05-01T08:09:18.544Z,0.82
2019-05-01T08:11:47.037Z,1.47
2019-05-01T08:14:16.685Z,1.82
2019-05-01T08:16:45.703Z,0.70
2019-05-01T08:19:15.749Z,2.52
2019-05-01T08:21:48.743Z,2.20
2019-05-01T08:24:17.973Z,2.08
2019-05-01T08:26:47.426Z,1.55
2019-05-01T08:29:36.899Z,1.20
2019-05-01T08:32:07.201Z,1.15
2019-05-01T08:34:48.371Z,1.27
2019-05-01T08:37:07.579Z,1.35
2019-05-01T08:39:39.790Z,0.75
2019-05-01T08:42:07.016Z,1.30
2019-05-01T08:44:49.502Z,1.17
2019-05-01T08:47:25.827Z,0.80
2019-05-01T08:49:56.879Z,1.00
2019-05-01T08:52:25.346Z,0.80
2019-05-01T08:54:54.915Z,1.02
2019-05-01T08:57:23.489Z,1.67
2019-05-01T08:59:55.731Z,0.50
2019-05-01T09:02:22.264Z,1.22
2019-05-01T09:05:01.752Z,1.57
2019-05-01T09:07:24.003Z,1.00
2019-05-01T09:09:51.154Z,1.20
2019-05-01T09:12:19.640Z,3.30
2019-05-01T09:14:51.020Z,1.60
2019-05-01T09:17:18.301Z,1.20
2019-05-01T09:19:46.779Z,1.25
2019-05-01T09:22:15.245Z,1.40
2019-05-01T09:24:43.738Z,1.42
2019-05-01T09:27:13.776Z,0.90
2019-05-01T09:29:51.317Z,0.40
2019-05-01T09:32:18.739Z,0.70
2019-05-01T09:34:47.273Z,1.10
2019-05-01T09:37:15.739Z,1.45
2019-05-01T09:39:47.052Z,1.30
2019-05-01T09:42:22.894Z,1.27
2019-05-01T09:44:44.626Z,0.93
2019-05-01T09:47:13.292Z,1.90
2019-05-01T09:49:41.777Z,2.20
2019-05-01T09:52:18.826Z,1.80
2019-05-01T09:54:52.739Z,1.80
2019-05-01T09:57:21.207Z,1.77
2019-05-01T09:59:49.703Z,1.30
2019-05-01T10:02:18.175Z,1.37
2019-05-01T10:04:46.653Z,0.95
2019-05-01T10:07:15.133Z,1.72
2019-05-01T10:09:47.294Z,1.80
2019-05-01T10:12:13.826Z,1.77
2019-05-01T10:14:42.305Z,1.30
2019-05-01T10:17:13.422Z,0.95
2019-05-01T10:19:41.027Z,1.80
2019-05-01T10:22:09.492Z,2.47
2019-05-01T10:24:39.378Z,3.10
2019-05-01T10:27:09.490Z,1.20
2019-05-01T10:29:51.806Z,1.32
2019-05-01T10:32:24.934Z,2.10
2019-05-01T10:34:56.738Z,0.70
2019-05-01T10:37:28.509Z,0.70
2019-05-01T10:39:55.492Z,1.00
2019-05-01T10:42:23.993Z,0.90
2019-05-01T10:44:52.456Z,0.80
2019-05-01T10:47:20.941Z,0.72
2019-05-01T10:49:49.426Z,2.22
2019-05-01T10:52:17.898Z,1.70
2019-05-01T10:54:46.677Z,1.40
2019-05-01T10:57:15.248Z,1.20
2019-05-01T10:59:43.716Z,1.37
2019-05-01T11:02:13.758Z,1.10
2019-05-01T11:04:42.235Z,0.80
2019-05-01T11:07:10.760Z,0.55
2019-05-01T11:09:39.237Z,0.55
2019-05-01T11:12:07.713Z,1.37
2019-05-01T11:14:36.195Z,1.20
2019-05-01T11:17:04.761Z,1.22
2019-05-01T11:19:33.249Z,1.50
2019-05-01T11:22:01.726Z,1.20
2019-05-01T11:24:30.208Z,0.80
2019-05-01T11:26:58.693Z,2.98
2019-05-01T11:29:27.172Z,0.70
2019-05-01T11:32:03.388Z,0.60
2019-05-01T11:34:33.439Z,0.80
2019-05-01T11:37:03.479Z,1.02
2019-05-01T11:39:36.004Z,1.20
2019-05-01T11:42:14.339Z,1.70
2019-05-01T11:44:42.818Z,3.60
2019-05-01T11:47:11.289Z,4.60
2019-05-01T11:49:39.769Z,1.50
2019-05-01T11:52:08.231Z,1.60
2019-05-01T11:54:36.711Z,1.80
2019-05-01T11:57:05.192Z,1.00
2019-05-01T11:59:33.666Z,4.47
2019-05-01T12:02:02.543Z,4.37
2019-05-01T12:04:31.099Z,1.80
2019-05-01T12:06:59.572Z,2.90
2019-05-01T12:09:28.092Z,2.00
2019-05-01T12:11:58.141Z,1.60
2019-05-01T12:14:26.617Z,1.80
2019-05-01T12:16:56.670Z,1.75
2019-05-01T12:19:26.712Z,1.40
2019-05-01T12:21:55.194Z,1.60
2019-05-01T12:24:23.664Z,0.80
2019-05-01T12:26:52.195Z,1.17
2019-05-01T12:29:20.663Z,2.10
2019-05-01T12:31:49.127Z,1.37
2019-05-01T12:34:18.006Z,1.45
2019-05-01T12:36:47.083Z,0.90
2019-05-01T12:39:16.961Z,1.60
2019-05-01T12:41:47.016Z,3.47
2019-05-01T12:44:15.496Z,0.90
2019-05-01T12:46:48.546Z,0.93
2019-05-01T12:49:17.016Z,1.10
2019-05-01T12:51:47.056Z,1.15
2019-05-01T12:54:17.111Z,1.60
2019-05-01T12:57:02.265Z,1.75
2019-05-01T12:59:30.744Z,1.27
2019-05-01T13:01:59.218Z,1.80
2019-05-01T13:04:27.697Z,1.50
2019-05-01T13:06:56.967Z,1.35
2019-05-01T13:09:25.450Z,0.90
2019-05-01T13:11:53.926Z,1.10
2019-05-01T13:14:22.405Z,1.27
2019-05-01T13:16:50.872Z,4.25
2019-05-01T13:19:19.385Z,4.62
2019-05-01T13:21:47.864Z,2.80
2019-05-01T13:24:16.349Z,2.35
2019-05-01T13:26:55.470Z,1.32
2019-05-01T13:29:25.512Z,2.50
2019-05-01T13:32:13.990Z,1.80
2019-05-01T13:34:42.458Z,2.10
2019-05-01T13:37:10.932Z,1.60
2019-05-01T13:39:39.396Z,2.00
2019-05-01T13:42:09.097Z,2.92
2019-05-01T13:44:37.633Z,2.08
2019-05-01T13:47:06.107Z,2.20
2019-05-01T13:49:34.574Z,1.90
2019-05-01T13:52:03.057Z,2.45
2019-05-01T13:54:31.531Z,2.80
2019-05-01T13:57:00.018Z,2.10
2019-05-01T13:59:28.486Z,1.62
2019-05-01T14:01:56.965Z,2.05
2019-05-01T14:04:25.937Z,1.50
2019-05-01T14:06:54.455Z,1.98
2019-05-01T14:09:27.463Z,2.67
2019-05-01T14:11:55.938Z,3.52
2019-05-01T14:14:24.416Z,4.62
2019-05-01T14:16:52.881Z,3.00
2019-05-01T14:19:21.364Z,2.47
2019-05-01T14:21:57.440Z,1.87
2019-05-01T14:24:29.949Z,1.80
2019-05-01T14:26:58.417Z,2.10
2019-05-01T14:29:26.907Z,1.27
2019-05-01T14:31:56.078Z,1.30
2019-05-01T14:34:24.555Z,3.50
2019-05-01T14:36:53.028Z,2.40
2019-05-01T14:39:21.509Z,2.08
2019-05-01T14:41:49.988Z,2.33
2019-05-01T14:44:18.478Z,1.67
2019-05-01T14:46:46.945Z,2.30
2019-05-01T14:49:15.429Z,1.70
2019-05-01T14:51:43.905Z,1.42
2019-05-01T14:54:12.393Z,1.60
2019-05-01T14:56:43.274Z,2.10
2019-05-01T14:59:11.075Z,3.10
2019-05-01T15:01:39.563Z,2.90
2019-05-01T15:04:08.047Z,1.85
2019-05-01T15:06:36.522Z,1.77
2019-05-01T15:09:07.510Z,1.50
2019-05-01T15:11:36.577Z,1.70
2019-05-01T15:14:07.175Z,1.30
2019-05-01T15:16:46.399Z,1.20
2019-05-01T15:19:16.490Z,1.75
2019-05-01T15:21:44.962Z,1.47
2019-05-01T15:24:13.441Z,1.40
2019-05-01T15:26:41.920Z,2.00
2019-05-01T15:29:10.398Z,4.33
2019-05-01T15:31:38.877Z,3.75
2019-05-01T15:34:07.355Z,4.20
2019-05-01T15:36:35.840Z,5.00
2019-05-01T15:39:07.212Z,4.65
2019-05-01T15:41:53.654Z,2.67
2019-05-01T15:44:23.693Z,2.10
2019-05-01T15:46:52.177Z,2.60
2019-05-01T15:49:20.654Z,2.62
2019-05-01T15:51:49.127Z,2.95
2019-05-01T15:54:17.602Z,4.78
2019-05-01T15:56:46.080Z,2.80
2019-05-01T15:59:14.545Z,1.98
2019-05-01T16:01:43.031Z,2.02
2019-05-01T16:04:11.514Z,1.70
2019-05-01T16:06:40.024Z,2.35
2019-05-01T16:09:08.500Z,4.40
2019-05-01T16:11:41.648Z,2.52
2019-05-01T16:14:10.124Z,3.70
2019-05-01T16:16:38.618Z,4.60
2019-05-01T16:19:07.093Z,1.50
2019-05-01T16:21:35.573Z,2.12
2019-05-01T16:24:04.053Z,3.50
2019-05-01T16:26:32.542Z,3.60
2019-05-01T16:29:01.012Z,2.00
2019-05-01T16:31:29.530Z,2.00
2019-05-01T16:33:58.003Z,3.00
2019-05-01T16:36:26.470Z,2.87
2019-05-01T16:38:59.519Z,3.30
2019-05-01T16:41:29.600Z,2.52
2019-05-01T16:43:58.071Z,3.98
2019-05-01T16:46:26.556Z,5.95
2019-05-01T16:48:55.046Z,7.03
2019-05-01T16:51:23.519Z,2.95
2019-05-01T16:53:51.997Z,3.87
2019-05-01T16:56:23.306Z,4.72
2019-05-01T16:58:51.865Z,2.20
2019-05-01T17:01:24.942Z,1.92
2019-05-01T17:04:01.044Z,1.80
2019-05-01T17:06:45.311Z,1.67
2019-05-01T17:09:29.884Z,2.02
2019-05-01T17:11:58.364Z,1.30
2019-05-01T17:14:26.850Z,1.77
2019-05-01T17:16:55.326Z,1.95
2019-05-01T17:19:23.848Z,2.10
2019-05-01T17:21:52.329Z,2.47
2019-05-01T17:24:20.797Z,2.87
2019-05-01T17:26:49.269Z,2.67
2019-05-01T17:29:17.749Z,3.80
2019-05-01T17:31:46.237Z,2.90
2019-05-01T17:34:14.721Z,3.92
2019-05-01T17:36:43.199Z,4.00
2019-05-01T17:39:12.776Z,3.10
2019-05-01T17:41:41.270Z,2.67
2019-05-01T17:44:09.752Z,2.70
2019-05-01T17:46:41.976Z,3.20
2019-05-01T17:49:09.420Z,2.92
2019-05-01T17:51:42.706Z,3.12
2019-05-01T17:54:08.868Z,2.92
2019-05-01T17:56:37.343Z,3.20
2019-05-01T17:59:05.832Z,3.00
2019-05-01T18:01:52.345Z,2.70
2019-05-01T18:04:34.490Z,2.60
2019-05-01T18:07:02.968Z,2.90
2019-05-01T18:09:31.439Z,3.67
2019-05-01T18:11:59.919Z,3.20
2019-05-01T18:14:28.400Z,2.30
2019-05-01T18:16:56.879Z,2.10
2019-05-01T18:19:25.354Z,2.20
2019-05-01T18:21:55.390Z,5.00
2019-05-01T18:24:40.581Z,3.65
2019-05-01T18:27:19.087Z,3.67
2019-05-01T18:29:48.629Z,2.10
2019-05-01T18:32:24.565Z,1.60
2019-05-01T18:34:53.041Z,2.20
2019-05-01T18:37:31.277Z,3.20
2019-05-01T18:39:59.624Z,2.85
2019-05-01T18:42:28.097Z,3.70
2019-05-01T18:44:56.602Z,2.35
2019-05-01T18:47:25.484Z,1.90
2019-05-01T18:49:53.965Z,2.05
2019-05-01T18:52:22.430Z,2.37
2019-05-01T18:54:50.946Z,2.40
2019-05-01T18:57:19.436Z,2.45
2019-05-01T18:59:47.912Z,2.30
2019-05-01T19:02:20.516Z,2.87
2019-05-01T19:04:46.583Z,3.72
2019-05-01T19:07:15.058Z,3.20
2019-05-01T19:09:43.542Z,2.62
2019-05-01T19:12:13.121Z,2.85
2019-05-01T19:14:41.631Z,2.95
2019-05-01T19:17:10.104Z,3.05
2019-05-01T19:19:38.580Z,2.67
2019-05-01T19:22:07.851Z,2.67
2019-05-01T19:24:38.199Z,3.47
2019-05-01T19:27:06.525Z,3.12
2019-05-01T19:29:36.095Z,3.27
2019-05-01T19:32:04.768Z,3.40
2019-05-01T19:34:33.241Z,3.00
2019-05-01T19:37:01.736Z,3.52
2019-05-01T19:39:42.417Z,3.10
2019-05-01T19:42:00.416Z,3.08
2019-05-01T19:44:28.910Z,2.70
2019-05-01T19:46:57.388Z,2.87
2019-05-01T19:49:29.753Z,2.70
2019-05-01T19:52:00.583Z,2.50
2019-05-01T19:54:28.014Z,2.70
2019-05-01T19:56:56.682Z,3.10
2019-05-01T19:59:25.145Z,3.33
2019-05-01T20:01:53.624Z,2.27
2019-05-01T20:04:22.098Z,2.55
2019-05-01T20:06:50.649Z,2.55
2019-05-01T20:09:19.324Z,2.55
2019-05-01T20:11:47.819Z,2.52
2019-05-01T20:14:16.289Z,2.50
2019-05-01T20:16:44.766Z,2.70
2019-05-01T20:19:13.243Z,2.50
2019-05-01T20:21:41.999Z,2.75
2019-05-01T20:24:10.645Z,2.60
2019-05-01T20:26:39.132Z,2.58
2019-05-01T20:29:07.956Z,2.72
2019-05-01T20:31:36.454Z,3.02
2019-05-01T20:34:04.922Z,3.65
2019-05-01T20:36:33.400Z,3.60
2019-05-01T20:39:01.872Z,3.22
2019-05-01T20:41:30.361Z,4.22
2019-05-01T20:43:58.832Z,4.97
2019-05-01T20:46:28.028Z,6.33
2019-05-01T20:49:01.434Z,7.00
2019-05-01T20:51:26.931Z,7.17
2019-05-01T20:53:55.397Z,7.20
2019-05-01T20:56:31.457Z,7.65
2019-05-01T20:59:03.233Z,7.87
2019-05-01T21:01:30.524Z,8.05
2019-05-01T21:04:17.024Z,9.00
2019-05-01T21:07:03.216Z,8.45
2019-05-01T21:09:47.400Z,8.75
2019-05-01T21:12:09.670Z,8.65
2019-05-01T21:14:38.141Z,8.00
2019-05-01T21:17:09.588Z,7.70
2019-05-01T21:19:37.815Z,7.50
2019-05-01T21:22:06.363Z,7.20
2019-05-01T21:24:34.848Z,8.05
2019-05-01T21:27:03.623Z,8.15
2019-05-01T21:29:34.192Z,7.47
2019-05-01T21:32:03.506Z,7.85
2019-05-01T21:34:33.330Z,8.08
2019-05-01T21:37:01.846Z,8.75
2019-05-01T21:39:30.323Z,9.00
2019-05-01T21:41:58.822Z,8.23
2019-05-01T21:44:27.288Z,7.20
2019-05-01T21:46:55.758Z,7.42
2019-05-01T21:49:24.237Z,5.97
2019-05-01T21:51:53.085Z,5.65
2019-05-01T21:54:21.977Z,6.47
2019-05-01T21:56:50.727Z,5.12
2019-05-01T21:59:19.200Z,5.47
2019-05-01T22:01:47.893Z,4.70
2019-05-01T22:04:16.364Z,4.67
2019-05-01T22:06:46.664Z,5.03
2019-05-01T22:09:16.656Z,5.15
2019-05-01T22:11:45.701Z,4.53
2019-05-01T22:14:21.332Z,4.92
2019-05-01T22:16:53.091Z,5.53
2019-05-01T22:19:22.584Z,4.78
2019-05-01T22:21:58.767Z,5.05
2019-05-01T22:24:38.158Z,4.95
2019-05-01T22:27:08.206Z,5.12
2019-05-01T22:29:47.368Z,4.80
2019-05-01T22:32:20.192Z,5.60
2019-05-01T22:35:06.717Z,4.97
2019-05-01T22:37:35.200Z,4.83
2019-05-01T22:40:06.436Z,4.92
2019-05-01T22:42:34.926Z,4.47
2019-05-01T22:45:04.393Z,4.97
2019-05-01T22:47:32.869Z,4.95
2019-05-01T22:50:01.336Z,5.10
2019-05-01T22:52:29.605Z,5.42
2019-05-01T22:54:58.081Z,5.00
2019-05-01T22:57:26.563Z,5.42
2019-05-01T22:59:55.039Z,5.40
2019-05-01T23:02:28.401Z,5.62
2019-05-01T23:04:55.280Z,5.30
2019-05-01T23:07:23.766Z,5.50
2019-05-01T23:09:53.827Z,4.90
2019-05-01T23:12:22.308Z,4.80
2019-05-01T23:14:50.776Z,4.50
2019-05-01T23:17:34.859Z,3.98
2019-05-01T23:20:03.945Z,4.03
2019-05-01T23:22:33.427Z,4.00
2019-05-01T23:25:01.896Z,4.05
2019-05-01T23:27:30.768Z,4.20
2019-05-01T23:29:59.245Z,4.60
2019-05-01T23:32:27.714Z,4.10
2019-05-01T23:34:56.196Z,3.92
2019-05-01T23:37:26.071Z,4.28
2019-05-01T23:39:54.631Z,4.80
2019-05-01T23:42:23.106Z,5.20
2019-05-01T23:44:51.579Z,5.00
2019-05-01T23:47:20.049Z,5.20
2019-05-01T23:49:52.546Z,4.97
2019-05-01T23:52:18.729Z,6.03
2019-05-01T23:54:47.217Z,5.50
2019-05-01T23:57:18.857Z,5.72
2019-05-01T23:59:45.898Z,5.60
